sensor_id;sensor_type;location;lat;lon;timestamp;P1;durP1;ratioP1;P2;durP2;ratioP2
10403;SDS011;5248;47.374;8.486;2023-04-25T00:01:36;3.77;;;2.90;;
10403;SDS011;5248;47.374;8.486;2023-04-25T00:04:03;2.17;;;2.07;;
10403;SDS011;5248;47.374;8.486;2023-04-25T00:06:30;2.33;;;2.23;;
10403;SDS011;5248;47.374;8.486;2023-04-25T00:08:58;4.20;;;2.23;;
10403;SDS011;5248;47.374;8.486;2023-04-25T00:11:25;3.03;;;2.40;;
10403;SDS011;5248;47.374;8.486;2023-04-25T00:13:51;3.43;;;2.80;;
10403;SDS011;5248;47.374;8.486;2023-04-25T00:16:19;3.37;;;2.50;;
10403;SDS011;5248;47.374;8.486;2023-04-25T00:18:45;2.57;;;2.37;;
10403;SDS011;5248;47.374;8.486;2023-04-25T00:21:16;2.93;;;2.50;;
10403;SDS011;5248;47.374;8.486;2023-04-25T00:23:43;2.50;;;2.07;;
10403;SDS011;5248;47.374;8.486;2023-04-25T00:26:12;3.57;;;2.33;;
10403;SDS011;5248;47.374;8.486;2023-04-25T00:28:38;4.73;;;2.80;;
10403;SDS011;5248;47.374;8.486;2023-04-25T00:31:05;3.97;;;2.60;;
10403;SDS011;5248;47.374;8.486;2023-04-25T00:33:31;2.40;;;2.20;;
10403;SDS011;5248;47.374;8.486;2023-04-25T00:35:58;3.63;;;2.23;;
10403;SDS011;5248;47.374;8.486;2023-04-25T00:38:24;2.90;;;2.53;;
10403;SDS011;5248;47.374;8.486;2023-04-25T00:40:51;2.73;;;2.33;;
10403;SDS011;5248;47.374;8.486;2023-04-25T00:43:19;2.70;;;2.20;;
10403;SDS011;5248;47.374;8.486;2023-04-25T00:45:46;6.97;;;2.43;;
10403;SDS011;5248;47.374;8.486;2023-04-25T00:48:13;4.47;;;2.73;;
10403;SDS011;5248;47.374;8.486;2023-04-25T00:50:40;3.70;;;2.10;;
10403;SDS011;5248;47.374;8.486;2023-04-25T00:53:07;3.00;;;2.23;;
10403;SDS011;5248;47.374;8.486;2023-04-25T00:55:35;2.60;;;2.40;;
10403;SDS011;5248;47.374;8.486;2023-04-25T00:58:01;3.23;;;2.60;;
10403;SDS011;5248;47.374;8.486;2023-04-25T01:00:29;3.00;;;2.50;;
10403;SDS011;5248;47.374;8.486;2023-04-25T01:02:56;3.57;;;2.60;;
10403;SDS011;5248;47.374;8.486;2023-04-25T01:05:22;5.30;;;2.20;;
10403;SDS011;5248;47.374;8.486;2023-04-25T01:07:49;5.10;;;2.53;;
10403;SDS011;5248;47.374;8.486;2023-04-25T01:10:15;2.70;;;2.33;;
10403;SDS011;5248;47.374;8.486;2023-04-25T01:12:42;3.33;;;2.57;;
10403;SDS011;5248;47.374;8.486;2023-04-25T01:15:08;6.47;;;2.63;;
10403;SDS011;5248;47.374;8.486;2023-04-25T01:17:36;5.60;;;2.57;;
10403;SDS011;5248;47.374;8.486;2023-04-25T01:20:04;6.77;;;2.80;;
10403;SDS011;5248;47.374;8.486;2023-04-25T01:22:33;3.07;;;2.23;;
10403;SDS011;5248;47.374;8.486;2023-04-25T01:25:00;5.17;;;2.73;;
10403;SDS011;5248;47.374;8.486;2023-04-25T01:27:27;3.40;;;2.20;;
10403;SDS011;5248;47.374;8.486;2023-04-25T01:29:54;4.00;;;3.00;;
10403;SDS011;5248;47.374;8.486;2023-04-25T01:32:20;6.60;;;2.67;;
10403;SDS011;5248;47.374;8.486;2023-04-25T01:34:47;2.57;;;2.30;;
10403;SDS011;5248;47.374;8.486;2023-04-25T01:37:14;4.07;;;2.47;;
10403;SDS011;5248;47.374;8.486;2023-04-25T01:39:42;5.57;;;2.63;;
10403;SDS011;5248;47.374;8.486;2023-04-25T01:42:09;2.60;;;2.40;;
10403;SDS011;5248;47.374;8.486;2023-04-25T01:44:35;2.57;;;2.30;;
10403;SDS011;5248;47.374;8.486;2023-04-25T01:47:02;3.00;;;2.70;;
10403;SDS011;5248;47.374;8.486;2023-04-25T01:49:28;2.67;;;2.33;;
10403;SDS011;5248;47.374;8.486;2023-04-25T01:51:55;2.87;;;2.37;;
10403;SDS011;5248;47.374;8.486;2023-04-25T01:54:21;5.60;;;2.50;;
10403;SDS011;5248;47.374;8.486;2023-04-25T01:56:51;3.50;;;2.47;;
10403;SDS011;5248;47.374;8.486;2023-04-25T01:59:18;3.87;;;2.60;;
10403;SDS011;5248;47.374;8.486;2023-04-25T02:01:45;4.00;;;2.80;;
10403;SDS011;5248;47.374;8.486;2023-04-25T02:04:11;2.93;;;2.63;;
10403;SDS011;5248;47.374;8.486;2023-04-25T02:06:38;2.60;;;2.40;;
10403;SDS011;5248;47.374;8.486;2023-04-25T02:09:04;5.97;;;2.80;;
10403;SDS011;5248;47.374;8.486;2023-04-25T02:11:30;4.50;;;2.83;;
10403;SDS011;5248;47.374;8.486;2023-04-25T02:13:58;6.97;;;3.00;;
10403;SDS011;5248;47.374;8.486;2023-04-25T02:16:25;4.53;;;3.17;;
10403;SDS011;5248;47.374;8.486;2023-04-25T02:18:51;9.37;;;4.10;;
10403;SDS011;5248;47.374;8.486;2023-04-25T02:21:19;3.87;;;2.67;;
10403;SDS011;5248;47.374;8.486;2023-04-25T02:23:45;3.83;;;2.70;;
10403;SDS011;5248;47.374;8.486;2023-04-25T02:26:13;2.80;;;2.50;;
10403;SDS011;5248;47.374;8.486;2023-04-25T02:28:40;4.43;;;3.33;;
10403;SDS011;5248;47.374;8.486;2023-04-25T02:31:08;2.87;;;2.60;;
10403;SDS011;5248;47.374;8.486;2023-04-25T02:33:34;4.43;;;3.07;;
10403;SDS011;5248;47.374;8.486;2023-04-25T02:36:01;4.27;;;2.80;;
10403;SDS011;5248;47.374;8.486;2023-04-25T02:38:28;3.03;;;2.70;;
10403;SDS011;5248;47.374;8.486;2023-04-25T02:40:54;4.83;;;2.90;;
10403;SDS011;5248;47.374;8.486;2023-04-25T02:43:21;4.30;;;3.00;;
10403;SDS011;5248;47.374;8.486;2023-04-25T02:45:47;6.77;;;2.93;;
10403;SDS011;5248;47.374;8.486;2023-04-25T02:48:15;3.80;;;2.80;;
10403;SDS011;5248;47.374;8.486;2023-04-25T02:50:42;4.83;;;3.50;;
10403;SDS011;5248;47.374;8.486;2023-04-25T02:53:08;4.73;;;2.93;;
10403;SDS011;5248;47.374;8.486;2023-04-25T02:55:35;3.60;;;2.40;;
10403;SDS011;5248;47.374;8.486;2023-04-25T02:58:01;5.53;;;2.73;;
10403;SDS011;5248;47.374;8.486;2023-04-25T03:00:28;4.47;;;3.20;;
10403;SDS011;5248;47.374;8.486;2023-04-25T03:02:54;3.23;;;2.97;;
10403;SDS011;5248;47.374;8.486;2023-04-25T03:05:22;4.03;;;2.70;;
10403;SDS011;5248;47.374;8.486;2023-04-25T03:07:48;4.00;;;2.57;;
10403;SDS011;5248;47.374;8.486;2023-04-25T03:10:15;5.20;;;2.73;;
10403;SDS011;5248;47.374;8.486;2023-04-25T03:12:41;3.63;;;2.80;;
10403;SDS011;5248;47.374;8.486;2023-04-25T03:15:08;4.03;;;2.47;;
10403;SDS011;5248;47.374;8.486;2023-04-25T03:17:35;4.63;;;2.53;;
10403;SDS011;5248;47.374;8.486;2023-04-25T03:20:01;4.43;;;2.50;;
10403;SDS011;5248;47.374;8.486;2023-04-25T03:22:31;6.87;;;2.60;;
10403;SDS011;5248;47.374;8.486;2023-04-25T03:24:58;3.27;;;2.30;;
10403;SDS011;5248;47.374;8.486;2023-04-25T03:27:24;3.20;;;2.30;;
10403;SDS011;5248;47.374;8.486;2023-04-25T03:29:51;2.63;;;2.20;;
10403;SDS011;5248;47.374;8.486;2023-04-25T03:32:17;3.57;;;2.60;;
10403;SDS011;5248;47.374;8.486;2023-04-25T03:34:43;3.93;;;2.23;;
10403;SDS011;5248;47.374;8.486;2023-04-25T03:37:10;5.17;;;2.80;;
10403;SDS011;5248;47.374;8.486;2023-04-25T03:39:38;4.83;;;2.80;;
10403;SDS011;5248;47.374;8.486;2023-04-25T03:42:04;4.00;;;2.70;;
10403;SDS011;5248;47.374;8.486;2023-04-25T03:44:31;4.77;;;2.50;;
10403;SDS011;5248;47.374;8.486;2023-04-25T03:46:57;5.30;;;2.70;;
10403;SDS011;5248;47.374;8.486;2023-04-25T03:49:24;3.57;;;2.40;;
10403;SDS011;5248;47.374;8.486;2023-04-25T03:51:50;4.03;;;2.30;;
10403;SDS011;5248;47.374;8.486;2023-04-25T03:54:17;4.00;;;2.77;;
10403;SDS011;5248;47.374;8.486;2023-04-25T03:56:44;3.47;;;2.20;;
10403;SDS011;5248;47.374;8.486;2023-04-25T03:59:11;3.83;;;2.50;;
10403;SDS011;5248;47.374;8.486;2023-04-25T04:01:38;5.53;;;2.40;;
10403;SDS011;5248;47.374;8.486;2023-04-25T04:04:04;3.57;;;2.30;;
10403;SDS011;5248;47.374;8.486;2023-04-25T04:06:30;3.70;;;2.57;;
10403;SDS011;5248;47.374;8.486;2023-04-25T04:08:57;3.13;;;2.50;;
10403;SDS011;5248;47.374;8.486;2023-04-25T04:11:23;4.67;;;2.80;;
10403;SDS011;5248;47.374;8.486;2023-04-25T04:13:51;2.63;;;2.40;;
10403;SDS011;5248;47.374;8.486;2023-04-25T04:16:18;2.63;;;2.30;;
10403;SDS011;5248;47.374;8.486;2023-04-25T04:18:45;4.47;;;3.00;;
10403;SDS011;5248;47.374;8.486;2023-04-25T04:21:11;5.30;;;2.97;;
10403;SDS011;5248;47.374;8.486;2023-04-25T04:23:38;7.00;;;2.80;;
10403;SDS011;5248;47.374;8.486;2023-04-25T04:26:04;6.03;;;2.77;;
10403;SDS011;5248;47.374;8.486;2023-04-25T04:28:32;9.40;;;2.70;;
10403;SDS011;5248;47.374;8.486;2023-04-25T04:30:59;4.67;;;2.90;;
10403;SDS011;5248;47.374;8.486;2023-04-25T04:33:27;3.13;;;2.30;;
10403;SDS011;5248;47.374;8.486;2023-04-25T04:35:54;3.73;;;2.70;;
10403;SDS011;5248;47.374;8.486;2023-04-25T04:38:21;6.30;;;2.50;;
10403;SDS011;5248;47.374;8.486;2023-04-25T04:40:48;5.57;;;3.23;;
10403;SDS011;5248;47.374;8.486;2023-04-25T04:43:15;5.93;;;2.73;;
10403;SDS011;5248;47.374;8.486;2023-04-25T04:45:42;5.57;;;2.70;;
10403;SDS011;5248;47.374;8.486;2023-04-25T04:48:10;4.50;;;2.50;;
10403;SDS011;5248;47.374;8.486;2023-04-25T04:50:39;3.13;;;2.60;;
10403;SDS011;5248;47.374;8.486;2023-04-25T04:53:06;4.27;;;2.77;;
10403;SDS011;5248;47.374;8.486;2023-04-25T04:55:33;4.83;;;2.47;;
10403;SDS011;5248;47.374;8.486;2023-04-25T04:57:59;3.43;;;2.57;;
10403;SDS011;5248;47.374;8.486;2023-04-25T05:00:26;3.13;;;2.73;;
10403;SDS011;5248;47.374;8.486;2023-04-25T05:02:54;2.63;;;2.43;;
10403;SDS011;5248;47.374;8.486;2023-04-25T05:05:22;2.50;;;2.30;;
10403;SDS011;5248;47.374;8.486;2023-04-25T05:07:48;3.60;;;2.40;;
10403;SDS011;5248;47.374;8.486;2023-04-25T05:10:16;4.70;;;3.20;;
10403;SDS011;5248;47.374;8.486;2023-04-25T05:12:42;3.83;;;2.43;;
10403;SDS011;5248;47.374;8.486;2023-04-25T05:15:09;4.13;;;2.07;;
10403;SDS011;5248;47.374;8.486;2023-04-25T05:17:36;3.33;;;2.60;;
10403;SDS011;5248;47.374;8.486;2023-04-25T05:20:04;5.03;;;2.33;;
10403;SDS011;5248;47.374;8.486;2023-04-25T05:22:34;4.30;;;2.30;;
10403;SDS011;5248;47.374;8.486;2023-04-25T05:25:01;3.60;;;2.40;;
10403;SDS011;5248;47.374;8.486;2023-04-25T05:27:28;6.03;;;2.93;;
10403;SDS011;5248;47.374;8.486;2023-04-25T05:29:55;2.97;;;2.23;;
10403;SDS011;5248;47.374;8.486;2023-04-25T05:32:21;4.47;;;2.37;;
10403;SDS011;5248;47.374;8.486;2023-04-25T05:34:48;2.83;;;2.00;;
10403;SDS011;5248;47.374;8.486;2023-04-25T05:37:15;3.63;;;2.20;;
10403;SDS011;5248;47.374;8.486;2023-04-25T05:39:42;3.27;;;2.37;;
10403;SDS011;5248;47.374;8.486;2023-04-25T05:42:09;6.40;;;2.50;;
10403;SDS011;5248;47.374;8.486;2023-04-25T05:44:35;4.43;;;2.20;;
10403;SDS011;5248;47.374;8.486;2023-04-25T05:47:02;6.00;;;2.70;;
10403;SDS011;5248;47.374;8.486;2023-04-25T05:49:29;2.60;;;2.20;;
10403;SDS011;5248;47.374;8.486;2023-04-25T05:51:56;4.47;;;2.30;;
10403;SDS011;5248;47.374;8.486;2023-04-25T05:54:22;4.50;;;2.40;;
10403;SDS011;5248;47.374;8.486;2023-04-25T05:56:50;5.03;;;2.37;;
10403;SDS011;5248;47.374;8.486;2023-04-25T05:59:16;4.00;;;2.47;;
10403;SDS011;5248;47.374;8.486;2023-04-25T06:01:43;3.83;;;2.13;;
10403;SDS011;5248;47.374;8.486;2023-04-25T06:04:09;2.30;;;1.77;;
10403;SDS011;5248;47.374;8.486;2023-04-25T06:06:36;3.07;;;2.03;;
10403;SDS011;5248;47.374;8.486;2023-04-25T06:09:02;3.50;;;2.20;;
10403;SDS011;5248;47.374;8.486;2023-04-25T06:11:29;5.57;;;2.50;;
10403;SDS011;5248;47.374;8.486;2023-04-25T06:13:57;4.60;;;2.00;;
10403;SDS011;5248;47.374;8.486;2023-04-25T06:16:23;4.63;;;2.40;;
10403;SDS011;5248;47.374;8.486;2023-04-25T06:18:50;4.33;;;1.90;;
10403;SDS011;5248;47.374;8.486;2023-04-25T06:21:17;4.20;;;2.07;;
10403;SDS011;5248;47.374;8.486;2023-04-25T06:23:43;4.50;;;2.30;;
10403;SDS011;5248;47.374;8.486;2023-04-25T06:26:10;5.27;;;2.50;;
10403;SDS011;5248;47.374;8.486;2023-04-25T06:28:36;4.60;;;2.30;;
10403;SDS011;5248;47.374;8.486;2023-04-25T06:31:04;2.50;;;2.07;;
10403;SDS011;5248;47.374;8.486;2023-04-25T06:33:30;2.97;;;1.93;;
10403;SDS011;5248;47.374;8.486;2023-04-25T06:35:57;2.93;;;2.20;;
10403;SDS011;5248;47.374;8.486;2023-04-25T06:38:23;4.10;;;2.27;;
10403;SDS011;5248;47.374;8.486;2023-04-25T06:40:50;2.63;;;2.27;;
10403;SDS011;5248;47.374;8.486;2023-04-25T06:43:17;3.00;;;1.93;;
10403;SDS011;5248;47.374;8.486;2023-04-25T06:45:43;2.27;;;1.73;;
10403;SDS011;5248;47.374;8.486;2023-04-25T06:48:11;3.33;;;2.37;;
10403;SDS011;5248;47.374;8.486;2023-04-25T06:50:37;1.77;;;1.67;;
10403;SDS011;5248;47.374;8.486;2023-04-25T06:53:04;1.93;;;1.83;;
10403;SDS011;5248;47.374;8.486;2023-04-25T06:55:30;2.13;;;1.57;;
10403;SDS011;5248;47.374;8.486;2023-04-25T06:57:57;2.73;;;1.63;;
10403;SDS011;5248;47.374;8.486;2023-04-25T07:00:23;1.60;;;1.43;;
10403;SDS011;5248;47.374;8.486;2023-04-25T07:02:50;3.23;;;1.50;;
10403;SDS011;5248;47.374;8.486;2023-04-25T07:05:18;1.83;;;1.50;;
10403;SDS011;5248;47.374;8.486;2023-04-25T07:07:44;2.20;;;1.67;;
10403;SDS011;5248;47.374;8.486;2023-04-25T07:10:11;3.67;;;1.87;;
10403;SDS011;5248;47.374;8.486;2023-04-25T07:12:37;2.00;;;1.77;;
10403;SDS011;5248;47.374;8.486;2023-04-25T07:15:04;4.30;;;3.40;;
10403;SDS011;5248;47.374;8.486;2023-04-25T07:17:33;2.07;;;1.97;;
10403;SDS011;5248;47.374;8.486;2023-04-25T07:19:59;3.03;;;2.10;;
10403;SDS011;5248;47.374;8.486;2023-04-25T07:22:27;2.13;;;1.80;;
10403;SDS011;5248;47.374;8.486;2023-04-25T07:24:54;2.17;;;1.80;;
10403;SDS011;5248;47.374;8.486;2023-04-25T07:27:20;1.77;;;1.67;;
10403;SDS011;5248;47.374;8.486;2023-04-25T07:29:47;1.53;;;1.43;;
10403;SDS011;5248;47.374;8.486;2023-04-25T07:32:13;2.50;;;1.50;;
10403;SDS011;5248;47.374;8.486;2023-04-25T07:34:39;2.73;;;1.73;;
10403;SDS011;5248;47.374;8.486;2023-04-25T07:37:06;2.17;;;1.50;;
10403;SDS011;5248;47.374;8.486;2023-04-25T07:39:34;1.70;;;1.60;;
10403;SDS011;5248;47.374;8.486;2023-04-25T07:42:02;1.83;;;1.43;;
10403;SDS011;5248;47.374;8.486;2023-04-25T07:44:28;2.03;;;1.60;;
10403;SDS011;5248;47.374;8.486;2023-04-25T07:46:55;1.73;;;1.63;;
10403;SDS011;5248;47.374;8.486;2023-04-25T07:49:22;6.93;;;2.43;;
10403;SDS011;5248;47.374;8.486;2023-04-25T07:51:48;1.80;;;1.70;;
10403;SDS011;5248;47.374;8.486;2023-04-25T07:54:15;2.83;;;1.90;;
10403;SDS011;5248;47.374;8.486;2023-04-25T07:56:43;2.40;;;1.60;;
10403;SDS011;5248;47.374;8.486;2023-04-25T07:59:09;2.07;;;1.40;;
10403;SDS011;5248;47.374;8.486;2023-04-25T08:01:35;2.60;;;1.60;;
10403;SDS011;5248;47.374;8.486;2023-04-25T08:04:02;2.53;;;1.73;;
10403;SDS011;5248;47.374;8.486;2023-04-25T08:06:29;2.17;;;1.40;;
10403;SDS011;5248;47.374;8.486;2023-04-25T08:08:56;1.73;;;1.40;;
10403;SDS011;5248;47.374;8.486;2023-04-25T08:11:22;1.77;;;1.43;;
10403;SDS011;5248;47.374;8.486;2023-04-25T08:13:50;1.50;;;1.40;;
10403;SDS011;5248;47.374;8.486;2023-04-25T08:16:16;2.00;;;1.60;;
10403;SDS011;5248;47.374;8.486;2023-04-25T08:18:43;2.37;;;1.60;;
10403;SDS011;5248;47.374;8.486;2023-04-25T08:21:09;1.43;;;1.03;;
10403;SDS011;5248;47.374;8.486;2023-04-25T08:23:37;1.60;;;1.47;;
10403;SDS011;5248;47.374;8.486;2023-04-25T08:26:03;1.90;;;1.80;;
10403;SDS011;5248;47.374;8.486;2023-04-25T08:28:30;1.60;;;1.30;;
10403;SDS011;5248;47.374;8.486;2023-04-25T08:30:58;3.30;;;1.47;;
10403;SDS011;5248;47.374;8.486;2023-04-25T08:33:25;2.30;;;1.50;;
10403;SDS011;5248;47.374;8.486;2023-04-25T08:35:52;1.37;;;1.27;;
10403;SDS011;5248;47.374;8.486;2023-04-25T08:38:18;1.90;;;1.70;;
10403;SDS011;5248;47.374;8.486;2023-04-25T08:40:46;2.17;;;1.57;;
10403;SDS011;5248;47.374;8.486;2023-04-25T08:43:16;2.07;;;1.20;;
10403;SDS011;5248;47.374;8.486;2023-04-25T08:45:44;1.50;;;1.37;;
10403;SDS011;5248;47.374;8.486;2023-04-25T08:48:12;2.07;;;1.40;;
10403;SDS011;5248;47.374;8.486;2023-04-25T08:50:42;2.13;;;1.73;;
10403;SDS011;5248;47.374;8.486;2023-04-25T08:53:12;3.33;;;1.50;;
10403;SDS011;5248;47.374;8.486;2023-04-25T08:55:43;2.53;;;1.30;;
10403;SDS011;5248;47.374;8.486;2023-04-25T08:58:10;1.20;;;1.10;;
10403;SDS011;5248;47.374;8.486;2023-04-25T09:00:37;1.57;;;1.30;;
10403;SDS011;5248;47.374;8.486;2023-04-25T09:03:03;1.30;;;1.17;;
10403;SDS011;5248;47.374;8.486;2023-04-25T09:05:32;4.43;;;1.43;;
10403;SDS011;5248;47.374;8.486;2023-04-25T09:07:59;2.00;;;1.37;;
10403;SDS011;5248;47.374;8.486;2023-04-25T09:10:26;2.27;;;1.30;;
10403;SDS011;5248;47.374;8.486;2023-04-25T09:13:02;1.50;;;1.40;;
10403;SDS011;5248;47.374;8.486;2023-04-25T09:15:31;1.70;;;1.40;;
10403;SDS011;5248;47.374;8.486;2023-04-25T09:17:58;1.90;;;1.40;;
10403;SDS011;5248;47.374;8.486;2023-04-25T09:20:25;1.97;;;1.60;;
10403;SDS011;5248;47.374;8.486;2023-04-25T09:23:02;1.87;;;1.77;;
10403;SDS011;5248;47.374;8.486;2023-04-25T09:25:33;1.57;;;1.47;;
10403;SDS011;5248;47.374;8.486;2023-04-25T09:28:00;1.40;;;1.30;;
10403;SDS011;5248;47.374;8.486;2023-04-25T09:30:30;3.60;;;2.97;;
10403;SDS011;5248;47.374;8.486;2023-04-25T09:32:57;1.33;;;1.23;;
10403;SDS011;5248;47.374;8.486;2023-04-25T09:35:24;1.50;;;1.40;;
10403;SDS011;5248;47.374;8.486;2023-04-25T09:37:51;1.60;;;1.50;;
10403;SDS011;5248;47.374;8.486;2023-04-25T09:40:19;1.40;;;1.30;;
10403;SDS011;5248;47.374;8.486;2023-04-25T09:42:45;1.47;;;1.27;;
10403;SDS011;5248;47.374;8.486;2023-04-25T09:45:12;0.93;;;0.93;;
10403;SDS011;5248;47.374;8.486;2023-04-25T09:47:41;1.20;;;1.20;;
10403;SDS011;5248;47.374;8.486;2023-04-25T09:50:13;1.40;;;1.30;;
10403;SDS011;5248;47.374;8.486;2023-04-25T09:52:40;1.37;;;1.30;;
10403;SDS011;5248;47.374;8.486;2023-04-25T09:55:07;1.20;;;1.10;;
10403;SDS011;5248;47.374;8.486;2023-04-25T09:57:35;1.23;;;1.07;;
10403;SDS011;5248;47.374;8.486;2023-04-25T10:00:05;0.80;;;0.80;;
10403;SDS011;5248;47.374;8.486;2023-04-25T10:02:37;1.07;;;1.07;;
10403;SDS011;5248;47.374;8.486;2023-04-25T10:05:05;1.53;;;1.30;;
10403;SDS011;5248;47.374;8.486;2023-04-25T10:07:33;1.07;;;0.90;;
10403;SDS011;5248;47.374;8.486;2023-04-25T10:10:00;1.20;;;1.20;;
10403;SDS011;5248;47.374;8.486;2023-04-25T10:12:28;0.90;;;0.90;;
10403;SDS011;5248;47.374;8.486;2023-04-25T10:14:57;1.03;;;1.00;;
10403;SDS011;5248;47.374;8.486;2023-04-25T10:17:24;1.07;;;0.97;;
10403;SDS011;5248;47.374;8.486;2023-04-25T10:19:52;0.70;;;0.70;;
10403;SDS011;5248;47.374;8.486;2023-04-25T10:22:20;1.93;;;1.27;;
10403;SDS011;5248;47.374;8.486;2023-04-25T10:24:52;2.00;;;1.80;;
10403;SDS011;5248;47.374;8.486;2023-04-25T10:27:18;1.00;;;1.00;;
10403;SDS011;5248;47.374;8.486;2023-04-25T10:29:45;0.60;;;0.60;;
10403;SDS011;5248;47.374;8.486;2023-04-25T10:32:30;0.90;;;0.90;;
10403;SDS011;5248;47.374;8.486;2023-04-25T10:34:57;1.10;;;1.10;;
10403;SDS011;5248;47.374;8.486;2023-04-25T10:37:23;0.97;;;0.90;;
10403;SDS011;5248;47.374;8.486;2023-04-25T10:39:50;1.70;;;0.80;;
10403;SDS011;5248;47.374;8.486;2023-04-25T10:42:18;0.70;;;0.70;;
10403;SDS011;5248;47.374;8.486;2023-04-25T10:45:00;1.03;;;0.90;;
10403;SDS011;5248;47.374;8.486;2023-04-25T10:47:34;0.80;;;0.80;;
10403;SDS011;5248;47.374;8.486;2023-04-25T10:50:04;0.80;;;0.80;;
10403;SDS011;5248;47.374;8.486;2023-04-25T10:52:32;1.03;;;1.03;;
10403;SDS011;5248;47.374;8.486;2023-04-25T10:54:59;1.37;;;0.80;;
10403;SDS011;5248;47.374;8.486;2023-04-25T10:57:29;1.00;;;1.00;;
10403;SDS011;5248;47.374;8.486;2023-04-25T10:59:58;2.70;;;0.90;;
10403;SDS011;5248;47.374;8.486;2023-04-25T11:02:27;0.70;;;0.70;;
10403;SDS011;5248;47.374;8.486;2023-04-25T11:04:54;0.73;;;0.73;;
10403;SDS011;5248;47.374;8.486;2023-04-25T11:07:23;0.70;;;0.70;;
10403;SDS011;5248;47.374;8.486;2023-04-25T11:09:55;0.97;;;0.80;;
10403;SDS011;5248;47.374;8.486;2023-04-25T11:12:22;0.40;;;0.40;;
10403;SDS011;5248;47.374;8.486;2023-04-25T11:14:50;0.83;;;0.70;;
10403;SDS011;5248;47.374;8.486;2023-04-25T11:17:27;1.37;;;0.80;;
10403;SDS011;5248;47.374;8.486;2023-04-25T11:19:54;1.23;;;0.80;;
10403;SDS011;5248;47.374;8.486;2023-04-25T11:22:21;1.10;;;0.80;;
10403;SDS011;5248;47.374;8.486;2023-04-25T11:24:48;1.17;;;0.97;;
10403;SDS011;5248;47.374;8.486;2023-04-25T11:27:15;0.80;;;0.80;;
10403;SDS011;5248;47.374;8.486;2023-04-25T11:29:41;3.27;;;1.10;;
10403;SDS011;5248;47.374;8.486;2023-04-25T11:32:08;0.80;;;0.80;;
10403;SDS011;5248;47.374;8.486;2023-04-25T11:34:36;1.10;;;1.00;;
10403;SDS011;5248;47.374;8.486;2023-04-25T11:37:03;0.97;;;0.90;;
10403;SDS011;5248;47.374;8.486;2023-04-25T11:39:31;1.33;;;1.07;;
10403;SDS011;5248;47.374;8.486;2023-04-25T11:41:57;0.80;;;0.80;;
10403;SDS011;5248;47.374;8.486;2023-04-25T11:44:24;1.53;;;1.10;;
10403;SDS011;5248;47.374;8.486;2023-04-25T11:46:50;0.97;;;0.87;;
10403;SDS011;5248;47.374;8.486;2023-04-25T11:49:17;0.70;;;0.70;;
10403;SDS011;5248;47.374;8.486;2023-04-25T11:51:46;1.10;;;0.80;;
10403;SDS011;5248;47.374;8.486;2023-04-25T11:54:14;1.27;;;0.90;;
10403;SDS011;5248;47.374;8.486;2023-04-25T11:56:41;0.83;;;0.83;;
10403;SDS011;5248;47.374;8.486;2023-04-25T11:59:08;0.90;;;0.80;;
10403;SDS011;5248;47.374;8.486;2023-04-25T12:01:35;0.85;;;0.85;;
10403;SDS011;5248;47.374;8.486;2023-04-25T12:04:12;1.15;;;0.95;;
10403;SDS011;5248;47.374;8.486;2023-04-25T12:06:39;1.75;;;0.90;;
10403;SDS011;5248;47.374;8.486;2023-04-25T12:09:09;1.07;;;0.93;;
10403;SDS011;5248;47.374;8.486;2023-04-25T12:11:42;0.88;;;0.88;;
10403;SDS011;5248;47.374;8.486;2023-04-25T12:14:09;1.05;;;0.90;;
10403;SDS011;5248;47.374;8.486;2023-04-25T12:16:40;1.00;;;0.83;;
10403;SDS011;5248;47.374;8.486;2023-04-25T12:19:08;2.37;;;0.90;;
10403;SDS011;5248;47.374;8.486;2023-04-25T12:21:34;1.60;;;0.90;;
10403;SDS011;5248;47.374;8.486;2023-04-25T12:26:51;1.63;;;1.30;;
10403;SDS011;5248;47.374;8.486;2023-04-25T12:29:18;1.13;;;0.90;;
10403;SDS011;5248;47.374;8.486;2023-04-25T12:31:46;1.97;;;1.27;;
10403;SDS011;5248;47.374;8.486;2023-04-25T12:34:12;2.20;;;1.30;;
10403;SDS011;5248;47.374;8.486;2023-04-25T12:36:39;1.70;;;1.10;;
10403;SDS011;5248;47.374;8.486;2023-04-25T12:39:06;1.53;;;1.03;;
10403;SDS011;5248;47.374;8.486;2023-04-25T12:41:34;2.13;;;1.63;;
10403;SDS011;5248;47.374;8.486;2023-04-25T12:44:00;1.63;;;1.40;;
10403;SDS011;5248;47.374;8.486;2023-04-25T12:46:27;1.77;;;1.30;;
10403;SDS011;5248;47.374;8.486;2023-04-25T12:48:53;1.30;;;1.30;;
10403;SDS011;5248;47.374;8.486;2023-04-25T12:51:21;1.60;;;1.50;;
10403;SDS011;5248;47.374;8.486;2023-04-25T12:53:50;1.60;;;1.50;;
10403;SDS011;5248;47.374;8.486;2023-04-25T12:56:16;2.73;;;1.47;;
10403;SDS011;5248;47.374;8.486;2023-04-25T12:58:44;1.30;;;1.30;;
10403;SDS011;5248;47.374;8.486;2023-04-25T13:01:11;3.60;;;1.30;;
10403;SDS011;5248;47.374;8.486;2023-04-25T13:03:38;1.47;;;1.33;;
10403;SDS011;5248;47.374;8.486;2023-04-25T13:06:05;1.97;;;1.57;;
10403;SDS011;5248;47.374;8.486;2023-04-25T13:08:32;1.60;;;1.50;;
10403;SDS011;5248;47.374;8.486;2023-04-25T13:10:59;1.33;;;1.10;;
10403;SDS011;5248;47.374;8.486;2023-04-25T13:13:26;1.47;;;1.10;;
10403;SDS011;5248;47.374;8.486;2023-04-25T13:15:54;2.27;;;1.50;;
10403;SDS011;5248;47.374;8.486;2023-04-25T13:18:22;2.23;;;1.33;;
10403;SDS011;5248;47.374;8.486;2023-04-25T13:20:51;1.47;;;1.23;;
10403;SDS011;5248;47.374;8.486;2023-04-25T13:23:17;1.57;;;1.10;;
10403;SDS011;5248;47.374;8.486;2023-04-25T13:25:44;3.83;;;1.70;;
10403;SDS011;5248;47.374;8.486;2023-04-25T13:28:10;2.03;;;1.40;;
10403;SDS011;5248;47.374;8.486;2023-04-25T13:30:37;1.90;;;1.03;;
10403;SDS011;5248;47.374;8.486;2023-04-25T13:33:05;5.20;;;4.70;;
10403;SDS011;5248;47.374;8.486;2023-04-25T13:35:32;3.03;;;2.73;;
10403;SDS011;5248;47.374;8.486;2023-04-25T13:37:59;1.27;;;1.27;;
10403;SDS011;5248;47.374;8.486;2023-04-25T13:40:26;1.05;;;1.05;;
10403;SDS011;5248;47.374;8.486;2023-04-25T13:42:53;1.13;;;1.07;;
10403;SDS011;5248;47.374;8.486;2023-04-25T13:45:19;1.13;;;1.05;;
10403;SDS011;5248;47.374;8.486;2023-04-25T13:47:46;1.30;;;1.20;;
10403;SDS011;5248;47.374;8.486;2023-04-25T13:50:16;1.10;;;1.10;;
10403;SDS011;5248;47.374;8.486;2023-04-25T13:52:43;0.63;;;0.60;;
10403;SDS011;5248;47.374;8.486;2023-04-25T13:55:10;0.80;;;0.80;;
10403;SDS011;5248;47.374;8.486;2023-04-25T13:57:36;1.10;;;0.80;;
10403;SDS011;5248;47.374;8.486;2023-04-25T14:00:03;1.10;;;1.00;;
10403;SDS011;5248;47.374;8.486;2023-04-25T14:02:33;2.87;;;1.40;;
10403;SDS011;5248;47.374;8.486;2023-04-25T14:05:00;3.07;;;1.33;;
10403;SDS011;5248;47.374;8.486;2023-04-25T14:07:28;2.93;;;1.13;;
10403;SDS011;5248;47.374;8.486;2023-04-25T14:09:55;2.07;;;1.10;;
10403;SDS011;5248;47.374;8.486;2023-04-25T14:12:22;1.27;;;1.20;;
10403;SDS011;5248;47.374;8.486;2023-04-25T14:14:48;2.77;;;1.17;;
10403;SDS011;5248;47.374;8.486;2023-04-25T14:17:15;2.33;;;1.40;;
10403;SDS011;5248;47.374;8.486;2023-04-25T14:19:41;1.27;;;1.13;;
10403;SDS011;5248;47.374;8.486;2023-04-25T14:22:10;1.67;;;1.23;;
10403;SDS011;5248;47.374;8.486;2023-04-25T14:24:38;2.53;;;1.50;;
10403;SDS011;5248;47.374;8.486;2023-04-25T14:27:05;2.30;;;1.33;;
10403;SDS011;5248;47.374;8.486;2023-04-25T14:29:31;1.83;;;1.40;;
10403;SDS011;5248;47.374;8.486;2023-04-25T14:31:57;2.03;;;1.60;;
10403;SDS011;5248;47.374;8.486;2023-04-25T14:34:24;1.10;;;1.10;;
10403;SDS011;5248;47.374;8.486;2023-04-25T14:36:51;1.50;;;1.33;;
10403;SDS011;5248;47.374;8.486;2023-04-25T14:39:18;1.50;;;1.40;;
10403;SDS011;5248;47.374;8.486;2023-04-25T14:41:46;1.87;;;1.40;;
10403;SDS011;5248;47.374;8.486;2023-04-25T14:44:12;1.43;;;1.33;;
10403;SDS011;5248;47.374;8.486;2023-04-25T14:46:40;1.40;;;1.40;;
10403;SDS011;5248;47.374;8.486;2023-04-25T14:49:07;1.90;;;1.53;;
10403;SDS011;5248;47.374;8.486;2023-04-25T14:51:33;4.10;;;2.20;;
10403;SDS011;5248;47.374;8.486;2023-04-25T14:53:59;2.97;;;2.50;;
10403;SDS011;5248;47.374;8.486;2023-04-25T14:56:26;2.70;;;1.70;;
10403;SDS011;5248;47.374;8.486;2023-04-25T14:58:54;3.23;;;1.80;;
10403;SDS011;5248;47.374;8.486;2023-04-25T15:01:21;2.23;;;1.17;;
10403;SDS011;5248;47.374;8.486;2023-04-25T15:03:47;1.90;;;1.33;;